createdAt,value
2018-07-11T06:25:12.985Z,77.85
2018-07-11T06:27:41.988Z,75.76
2018-07-11T06:30:11.074Z,74.55
2018-07-11T06:32:40.134Z,73.29
2018-07-11T06:35:09.142Z,70.97
2018-07-11T06:37:38.121Z,71.90
2018-07-11T06:40:07.265Z,69.37
2018-07-11T06:42:36.372Z,70.78
2018-07-11T06:45:05.517Z,67.36
2018-07-11T06:47:34.638Z,69.17
2018-07-11T06:50:04.002Z,69.74
2018-07-11T06:52:32.980Z,68.99
2018-07-11T06:55:01.956Z,67.15
2018-07-11T06:57:31.026Z,67.96
2018-07-11T07:00:00.029Z,69.12
2018-07-11T07:02:29.084Z,67.60
2018-07-11T07:04:58.124Z,64.32
2018-07-11T07:07:27.192Z,65.94
2018-07-11T07:09:56.159Z,62.88
2018-07-11T07:12:25.159Z,62.05
2018-07-11T07:14:54.489Z,63.32
2018-07-11T07:17:23.664Z,65.33
2018-07-11T07:19:52.892Z,65.55
2018-07-11T07:22:22.218Z,66.53
2018-07-11T07:24:51.511Z,64.96
2018-07-11T07:27:20.743Z,63.65
2018-07-11T07:29:49.932Z,63.84
2018-07-11T07:32:19.095Z,61.25
2018-07-11T07:34:48.396Z,66.32
2018-07-11T07:37:17.617Z,65.00
2018-07-11T07:39:46.827Z,62.06
2018-07-11T07:42:16.124Z,62.82
2018-07-11T07:44:45.359Z,62.93
2018-07-11T07:47:19.640Z,62.14
2018-07-11T07:49:48.678Z,63.51
2018-07-11T07:52:17.768Z,64.15
2018-07-11T07:54:46.911Z,65.95
2018-07-11T07:57:15.993Z,65.41
2018-07-11T07:59:45.070Z,65.53
2018-07-11T08:02:14.232Z,63.51
2018-07-11T08:04:43.584Z,65.37
2018-07-11T08:07:12.596Z,63.49
2018-07-11T08:09:41.581Z,63.73
2018-07-11T08:12:10.595Z,62.31
2018-07-11T08:14:39.589Z,59.34
2018-07-11T08:17:08.607Z,57.39
2018-07-11T08:19:37.652Z,56.57
2018-07-11T08:22:17.365Z,59.88
2018-07-11T08:26:01.613Z,60.28
2018-07-11T08:31:47.344Z,59.43
2018-07-11T08:34:27.040Z,54.21
2018-07-11T08:37:09.004Z,55.12
2018-07-11T08:39:48.024Z,56.26
2018-07-11T08:42:30.500Z,55.04
2018-07-11T08:45:17.247Z,53.05
2018-07-11T08:47:59.588Z,53.66
2018-07-11T08:50:41.184Z,50.63
2018-07-11T08:53:22.248Z,50.46
2018-07-11T08:58:24.965Z,50.22
2018-07-11T09:01:05.026Z,50.71
2018-07-11T09:07:52.246Z,50.38
2018-07-11T09:11:45.014Z,50.22
2018-07-11T09:15:26.307Z,49.96
2018-07-11T09:18:13.324Z,52.46
2018-07-11T09:20:58.629Z,48.83
2018-07-11T09:23:46.052Z,48.91
2018-07-11T09:26:15.236Z,48.65
2018-07-11T09:28:44.416Z,49.69
2018-07-11T09:31:13.392Z,52.50
2018-07-11T09:33:42.383Z,50.59
2018-07-11T09:36:11.359Z,51.08
2018-07-11T09:38:40.608Z,52.50
2018-07-11T09:41:09.647Z,48.65
2018-07-11T09:43:38.701Z,47.87
2018-07-11T09:46:07.865Z,51.21
2018-07-11T09:48:36.869Z,53.50
2018-07-11T09:51:07.658Z,51.64
2018-07-11T09:53:37.377Z,52.39
2018-07-11T09:56:06.970Z,50.17
2018-07-11T09:58:36.044Z,50.43
2018-07-11T10:01:10.123Z,53.53
2018-07-11T10:03:39.251Z,52.95
2018-07-11T10:06:08.343Z,49.77
2018-07-11T10:08:37.377Z,52.17
2018-07-11T10:11:06.693Z,49.32
2018-07-11T10:13:35.815Z,50.66
2018-07-11T10:16:04.871Z,53.72
2018-07-11T10:18:33.956Z,54.02
2018-07-11T10:21:02.984Z,54.94
2018-07-11T10:23:32.017Z,54.40
2018-07-11T10:26:00.995Z,54.53
2018-07-11T10:28:32.363Z,54.75
2018-07-11T10:31:02.664Z,52.92
2018-07-11T10:33:31.724Z,50.46
2018-07-11T10:36:00.897Z,53.75
2018-07-11T10:38:30.059Z,53.71
2018-07-11T10:40:59.077Z,55.22
2018-07-11T10:43:28.279Z,52.19
2018-07-11T10:45:57.297Z,51.18
2018-07-11T10:48:26.417Z,53.06
2018-07-11T10:50:55.592Z,51.77
2018-07-11T10:53:24.684Z,50.57
2018-07-11T10:55:53.779Z,52.89
2018-07-11T10:58:22.820Z,52.39
2018-07-11T11:01:05.030Z,52.97
2018-07-11T11:03:26.764Z,52.87
2018-07-11T11:05:56.264Z,54.54
2018-07-11T11:08:26.344Z,53.39
2018-07-11T11:10:55.451Z,51.34
2018-07-11T11:13:25.079Z,51.37
2018-07-11T11:15:54.960Z,53.26
2018-07-11T11:18:24.497Z,51.08
2018-07-11T11:20:55.008Z,51.17
2018-07-11T11:23:24.333Z,54.54
2018-07-11T11:25:53.332Z,54.02
2018-07-11T11:28:22.313Z,52.29
2018-07-11T11:30:51.360Z,53.84
2018-07-11T11:33:20.448Z,53.64
2018-07-11T11:35:49.690Z,52.14
2018-07-11T11:38:18.697Z,53.46
2018-07-11T11:40:47.835Z,51.49
2018-07-11T11:43:16.825Z,51.19
2018-07-11T11:45:45.808Z,52.27
2018-07-11T11:48:14.875Z,50.82
2018-07-11T11:50:43.940Z,51.81
2018-07-11T11:53:13.135Z,49.78
2018-07-11T11:55:42.109Z,49.47
2018-07-11T11:58:11.217Z,51.94
2018-07-11T12:00:40.371Z,49.80
2018-07-11T12:03:09.663Z,51.65
2018-07-11T12:05:38.908Z,51.11
2018-07-11T12:08:08.120Z,52.76
2018-07-11T12:10:37.460Z,51.66
2018-07-11T12:13:06.444Z,51.75
2018-07-11T12:15:35.713Z,51.97
2018-07-11T12:18:04.787Z,50.25
2018-07-11T12:20:33.767Z,49.81
2018-07-11T12:23:02.885Z,51.36
2018-07-11T12:25:31.987Z,52.46
2018-07-11T12:28:01.133Z,49.56
2018-07-11T12:30:30.240Z,52.38
2018-07-11T12:32:59.400Z,52.79
2018-07-11T12:35:28.448Z,52.18
2018-07-11T12:37:57.669Z,51.05
2018-07-11T12:40:26.711Z,50.81
2018-07-11T12:42:55.936Z,51.75
2018-07-11T12:45:25.096Z,50.03
2018-07-11T12:47:59.187Z,51.80
2018-07-11T12:50:28.612Z,51.61
2018-07-11T12:52:57.918Z,49.57
2018-07-11T12:55:27.107Z,49.30
2018-07-11T12:57:56.956Z,50.16
2018-07-11T13:00:26.508Z,50.01
2018-07-11T13:02:56.885Z,47.46
2018-07-11T13:05:26.288Z,49.01
2018-07-11T13:07:55.488Z,50.58
2018-07-11T13:10:25.020Z,50.10
2018-07-11T13:12:54.320Z,50.62
2018-07-11T13:15:23.736Z,50.63
2018-07-11T13:17:52.774Z,49.53
2018-07-11T13:20:21.753Z,48.95
2018-07-11T13:22:50.700Z,49.53
2018-07-11T13:25:20.251Z,50.78
2018-07-11T13:27:49.496Z,50.61
2018-07-11T13:30:18.894Z,49.83
2018-07-11T13:32:48.175Z,48.63
2018-07-11T13:35:17.515Z,48.25
2018-07-11T13:37:46.659Z,49.62
2018-07-11T13:40:15.693Z,47.56
2018-07-11T13:42:45.008Z,46.03
2018-07-11T13:45:14.503Z,50.34
2018-07-11T13:47:43.784Z,50.61
2018-07-11T13:50:12.905Z,50.69
2018-07-11T13:52:42.452Z,50.33
2018-07-11T13:55:11.883Z,49.00
2018-07-11T13:57:41.051Z,47.61
2018-07-11T14:00:10.165Z,49.94
2018-07-11T14:02:39.254Z,49.53
2018-07-11T14:05:08.564Z,48.58
2018-07-11T14:07:38.046Z,49.14
2018-07-11T14:10:07.756Z,48.67
2018-07-11T14:12:37.124Z,48.66
2018-07-11T14:15:06.528Z,48.01
2018-07-11T14:17:36.162Z,49.23
2018-07-11T14:20:05.860Z,49.76
2018-07-11T14:22:34.871Z,49.27
2018-07-11T14:25:04.285Z,49.48
2018-07-11T14:27:48.678Z,50.59
2018-07-11T14:30:18.156Z,46.35
2018-07-11T14:32:52.108Z,50.56
2018-07-11T14:35:21.259Z,50.46
2018-07-11T14:37:50.945Z,50.50
2018-07-11T14:40:20.110Z,49.23
2018-07-11T14:42:49.237Z,49.14
2018-07-11T14:45:18.327Z,48.15
2018-07-11T14:47:52.660Z,47.83
2018-07-11T14:50:22.000Z,50.50
2018-07-11T14:52:51.410Z,50.45
2018-07-11T14:55:21.080Z,51.23
2018-07-11T14:57:50.683Z,49.18
2018-07-11T15:00:19.810Z,47.45
2018-07-11T15:02:48.933Z,49.63
2018-07-11T15:05:17.948Z,47.99
2018-07-11T15:07:47.053Z,49.33
2018-07-11T15:10:16.075Z,50.96
2018-07-11T15:12:45.187Z,49.89
2018-07-11T15:15:14.233Z,49.39
2018-07-11T15:17:43.449Z,50.01
2018-07-11T15:20:12.582Z,46.04
2018-07-11T15:22:41.645Z,48.21
2018-07-11T15:25:10.701Z,48.70
2018-07-11T15:27:39.824Z,49.79
2018-07-11T15:30:09.012Z,49.87
2018-07-11T15:32:38.186Z,49.13
2018-07-11T15:35:07.380Z,49.10
2018-07-11T15:37:36.617Z,49.22
2018-07-11T15:40:06.641Z,49.17
2018-07-11T15:42:36.544Z,48.74
2018-07-11T15:45:06.487Z,48.52
2018-07-11T15:47:37.052Z,47.39
2018-07-11T15:50:06.225Z,51.16
2018-07-11T15:52:35.482Z,47.95
2018-07-11T15:55:06.280Z,50.27
2018-07-11T15:57:38.926Z,50.98
2018-07-11T16:00:12.206Z,49.99
2018-07-11T16:02:44.164Z,51.14
2018-07-11T16:05:14.976Z,52.36
2018-07-11T16:07:47.034Z,52.63
2018-07-11T16:10:17.180Z,51.89
2018-07-11T16:12:46.212Z,51.68
2018-07-11T16:15:15.332Z,51.83
2018-07-11T16:17:44.440Z,51.71
2018-07-11T16:20:13.589Z,53.19
2018-07-11T16:22:42.736Z,52.44
2018-07-11T16:25:12.164Z,55.06
2018-07-11T16:27:41.567Z,55.67
2018-07-11T16:30:10.961Z,54.32
2018-07-11T16:32:40.216Z,55.28
2018-07-11T16:35:09.516Z,55.73
2018-07-11T16:37:38.673Z,56.21
2018-07-11T16:40:07.780Z,57.88
2018-07-11T16:42:37.174Z,56.75
2018-07-11T16:45:06.895Z,60.09
2018-07-11T16:47:36.537Z,61.11
2018-07-11T16:50:06.333Z,60.64
2018-07-11T16:52:35.535Z,61.94
2018-07-11T16:55:04.665Z,62.41
2018-07-11T16:57:44.115Z,62.94
2018-07-11T17:00:13.460Z,63.16
2018-07-11T17:02:45.283Z,65.22
2018-07-11T17:05:20.683Z,66.49
2018-07-11T17:07:56.393Z,66.01
2018-07-11T17:10:25.777Z,65.86
2018-07-11T17:13:12.868Z,67.12
2018-07-11T17:15:46.907Z,67.37
2018-07-11T17:18:23.128Z,67.76
2018-07-11T17:20:52.423Z,69.37
2018-07-11T17:23:21.564Z,68.69
2018-07-11T17:25:50.696Z,69.95
2018-07-11T17:28:19.886Z,70.60
2018-07-11T17:30:49.100Z,70.08
2018-07-11T17:33:18.590Z,70.16
2018-07-11T17:35:51.631Z,69.94
2018-07-11T17:38:27.795Z,69.45
2018-07-11T17:40:59.094Z,69.76
2018-07-11T17:43:34.465Z,69.38
2018-07-11T17:46:04.749Z,69.72
2018-07-11T17:48:45.820Z,69.76
2018-07-11T17:52:24.336Z,70.17
2018-07-11T17:55:08.207Z,71.77
2018-07-11T17:57:49.793Z,72.79
2018-07-11T18:00:30.741Z,71.88
2018-07-11T18:03:19.398Z,72.44
2018-07-11T18:05:56.866Z,72.41
2018-07-11T18:08:33.869Z,72.28
2018-07-11T18:11:03.083Z,72.37
2018-07-11T18:13:38.930Z,72.68
2018-07-11T18:19:19.607Z,74.00
2018-07-11T18:24:30.501Z,75.00
2018-07-11T18:27:11.679Z,74.86
2018-07-11T18:29:50.373Z,74.84
2018-07-11T18:36:42.965Z,75.51
2018-07-11T18:39:36.648Z,76.65
2018-07-11T18:42:19.368Z,77.99
2018-07-11T18:45:58.205Z,78.99
2018-07-11T18:48:51.941Z,79.74
2018-07-11T18:51:26.464Z,79.54
2018-07-11T18:54:10.223Z,78.35
2018-07-11T18:57:04.143Z,78.81
2018-07-11T18:59:42.126Z,79.54
2018-07-11T19:04:31.005Z,79.63
2018-07-11T19:07:19.281Z,81.36
2018-07-11T19:09:54.840Z,81.37
2018-07-11T19:12:31.688Z,81.54
2018-07-11T19:15:14.988Z,81.63
2018-07-11T19:18:26.447Z,82.20
2018-07-11T19:21:35.133Z,81.00
2018-07-11T19:24:09.841Z,81.13
2018-07-11T19:26:49.720Z,80.75
2018-07-11T19:29:26.924Z,79.92
2018-07-11T19:32:09.219Z,81.21
2018-07-11T19:34:48.083Z,80.96
2018-07-11T19:38:24.331Z,81.69
2018-07-11T19:41:59.673Z,81.89
2018-07-11T19:45:54.719Z,82.63
2018-07-11T19:48:51.232Z,82.71
2018-07-11T19:51:32.119Z,83.99
2018-07-11T19:54:12.046Z,84.57
2018-07-11T19:56:43.789Z,85.58
2018-07-11T19:59:13.128Z,87.11
2018-07-11T20:01:42.676Z,87.22
2018-07-11T20:04:12.322Z,87.60
2018-07-11T20:06:41.457Z,88.74
2018-07-11T20:09:10.764Z,89.19
2018-07-11T20:11:39.881Z,89.11
2018-07-11T20:14:09.099Z,90.03
2018-07-11T20:16:38.338Z,89.69
2018-07-11T20:19:07.342Z,90.77
2018-07-11T20:21:36.435Z,90.88
2018-07-11T20:24:05.453Z,90.53
2018-07-11T20:26:34.560Z,91.10
2018-07-11T20:29:03.653Z,91.31
2018-07-11T20:31:32.861Z,92.16
2018-07-11T20:34:01.888Z,92.68
2018-07-11T20:36:30.880Z,92.69
2018-07-11T20:39:00.180Z,92.74
2018-07-11T20:41:29.483Z,93.30
2018-07-11T20:43:58.680Z,93.54
2018-07-11T20:46:28.350Z,94.56
2018-07-11T20:48:57.444Z,95.28
2018-07-11T20:51:26.431Z,95.57
2018-07-11T20:53:55.397Z,96.12
2018-07-11T20:56:24.418Z,96.62
2018-07-11T20:59:04.221Z,96.44
2018-07-11T21:01:44.038Z,96.53
2018-07-11T21:04:33.944Z,96.80
2018-07-11T21:07:37.857Z,95.45
2018-07-11T21:12:21.394Z,94.97
2018-07-11T21:16:10.910Z,95.21
2018-07-11T21:18:53.596Z,95.29
2018-07-11T21:21:22.803Z,95.33
2018-07-11T21:23:51.788Z,95.44
2018-07-11T21:26:21.185Z,95.72
2018-07-11T21:28:50.474Z,96.14
2018-07-11T21:31:19.537Z,95.91
2018-07-11T21:33:48.724Z,96.50
2018-07-11T21:36:17.708Z,97.06
2018-07-11T21:38:46.902Z,96.91
2018-07-11T21:41:15.880Z,97.11
2018-07-11T21:43:45.093Z,96.99
2018-07-11T21:46:14.551Z,97.45
2018-07-11T21:48:44.046Z,97.11
2018-07-11T21:51:13.069Z,97.80
2018-07-11T21:53:42.393Z,98.50
2018-07-11T21:56:11.529Z,98.27
2018-07-11T21:58:40.994Z,98.23
2018-07-11T22:01:11.341Z,97.97
2018-07-11T22:03:40.638Z,98.09
2018-07-11T22:06:09.964Z,99.29
2018-07-11T22:08:39.192Z,98.96
2018-07-11T22:11:08.395Z,98.56
2018-07-11T22:13:37.466Z,99.31
2018-07-11T22:16:06.744Z,99.77
2018-07-11T22:18:39.616Z,99.29
2018-07-11T22:21:08.199Z,99.67
2018-07-11T22:23:35.997Z,99.46
2018-07-11T22:26:03.724Z,98.44
2018-07-11T22:28:31.437Z,99.32
2018-07-11T22:30:59.061Z,99.26
2018-07-11T22:33:26.691Z,99.25
2018-07-11T22:35:54.448Z,99.16
2018-07-11T22:38:21.988Z,99.78
2018-07-11T22:40:49.830Z,99.23
2018-07-11T22:43:17.424Z,99.07
2018-07-11T22:45:45.065Z,100.00
2018-07-11T22:48:12.711Z,100.00
2018-07-11T22:50:40.273Z,100.00
2018-07-11T22:53:07.739Z,100.00
2018-07-11T22:55:35.195Z,100.00
2018-07-11T22:58:02.731Z,100.00
2018-07-11T23:00:30.292Z,100.00
2018-07-11T23:02:57.872Z,100.00
2018-07-11T23:05:25.539Z,100.00
2018-07-11T23:07:53.220Z,100.00
2018-07-11T23:10:20.871Z,99.72
2018-07-11T23:12:48.379Z,100.00
2018-07-11T23:15:15.912Z,100.00
2018-07-11T23:17:43.508Z,100.00
2018-07-11T23:20:11.196Z,100.00
2018-07-11T23:22:38.826Z,100.00
2018-07-11T23:25:06.279Z,100.00
2018-07-11T23:27:33.757Z,100.00
2018-07-11T23:30:01.220Z,100.00
2018-07-11T23:32:28.810Z,100.00
2018-07-11T23:34:56.268Z,100.00
2018-07-11T23:37:23.726Z,100.00
2018-07-11T23:39:51.192Z,100.00
2018-07-11T23:42:18.639Z,100.00
2018-07-11T23:44:46.099Z,100.00
2018-07-11T23:47:13.617Z,100.00
2018-07-11T23:49:41.144Z,100.00
2018-07-11T23:52:08.600Z,100.00
2018-07-11T23:54:36.117Z,100.00
2018-07-11T23:57:03.710Z,100.00
2018-07-11T23:59:31.190Z,100.00
